sensor_id;sensor_type;location;lat;lon;timestamp;P1;durP1;ratioP1;P2;durP2;ratioP2
21550;SDS011;10936;49.836;7.078;2022-11-14T06:02:34;1.80;;;1.53;;
21550;SDS011;10936;49.836;7.078;2022-11-14T06:05:00;1.80;;;1.40;;
21550;SDS011;10936;49.836;7.078;2022-11-14T06:07:25;1.70;;;1.40;;
21550;SDS011;10936;49.836;7.078;2022-11-14T06:09:51;2.37;;;1.87;;
21550;SDS011;10936;49.836;7.078;2022-11-14T06:12:16;2.77;;;1.60;;
21550;SDS011;10936;49.836;7.078;2022-11-14T06:14:42;3.03;;;1.60;;
21550;SDS011;10936;49.836;7.078;2022-11-14T06:17:07;1.63;;;1.47;;
21550;SDS011;10936;49.836;7.078;2022-11-14T06:19:33;1.73;;;1.40;;
21550;SDS011;10936;49.836;7.078;2022-11-14T06:21:59;2.53;;;1.50;;
21550;SDS011;10936;49.836;7.078;2022-11-14T06:24:24;2.07;;;1.63;;
21550;SDS011;10936;49.836;7.078;2022-11-14T06:26:50;1.50;;;1.40;;
21550;SDS011;10936;49.836;7.078;2022-11-14T06:29:15;1.90;;;1.50;;
21550;SDS011;10936;49.836;7.078;2022-11-14T06:31:41;1.67;;;1.40;;
21550;SDS011;10936;49.836;7.078;2022-11-14T06:34:06;3.10;;;1.73;;
21550;SDS011;10936;49.836;7.078;2022-11-14T06:36:32;2.30;;;1.70;;
21550;SDS011;10936;49.836;7.078;2022-11-14T06:38:57;2.03;;;1.53;;
21550;SDS011;10936;49.836;7.078;2022-11-14T06:41:23;2.10;;;1.57;;
21550;SDS011;10936;49.836;7.078;2022-11-14T06:43:49;2.50;;;1.60;;
21550;SDS011;10936;49.836;7.078;2022-11-14T06:46:18;3.73;;;1.60;;
21550;SDS011;10936;49.836;7.078;2022-11-14T06:48:45;2.17;;;1.63;;
21550;SDS011;10936;49.836;7.078;2022-11-14T06:51:12;3.80;;;1.60;;
21550;SDS011;10936;49.836;7.078;2022-11-14T06:53:39;3.90;;;1.90;;
21550;SDS011;10936;49.836;7.078;2022-11-14T06:56:05;2.13;;;1.67;;
21550;SDS011;10936;49.836;7.078;2022-11-14T06:58:33;1.93;;;1.47;;
21550;SDS011;10936;49.836;7.078;2022-11-14T07:01:07;3.17;;;1.80;;
21550;SDS011;10936;49.836;7.078;2022-11-14T07:03:39;1.97;;;1.60;;
21550;SDS011;10936;49.836;7.078;2022-11-14T07:06:06;2.67;;;1.90;;
21550;SDS011;10936;49.836;7.078;2022-11-14T07:08:32;3.27;;;2.07;;
21550;SDS011;10936;49.836;7.078;2022-11-14T07:11:02;3.13;;;1.80;;
21550;SDS011;10936;49.836;7.078;2022-11-14T07:13:32;5.30;;;1.90;;
21550;SDS011;10936;49.836;7.078;2022-11-14T07:15:58;2.50;;;1.60;;
21550;SDS011;10936;49.836;7.078;2022-11-14T07:18:24;4.50;;;1.90;;
21550;SDS011;10936;49.836;7.078;2022-11-14T07:20:58;4.00;;;1.93;;
21550;SDS011;10936;49.836;7.078;2022-11-14T07:23:29;3.07;;;1.70;;
21550;SDS011;10936;49.836;7.078;2022-11-14T07:25:59;2.83;;;1.77;;
21550;SDS011;10936;49.836;7.078;2022-11-14T07:28:25;3.90;;;1.83;;
21550;SDS011;10936;49.836;7.078;2022-11-14T07:30:51;3.00;;;1.90;;
21550;SDS011;10936;49.836;7.078;2022-11-14T07:33:17;2.00;;;1.80;;
21550;SDS011;10936;49.836;7.078;2022-11-14T07:35:43;2.90;;;1.70;;
21550;SDS011;10936;49.836;7.078;2022-11-14T07:38:08;4.27;;;1.87;;
21550;SDS011;10936;49.836;7.078;2022-11-14T07:40:34;4.27;;;1.80;;
21550;SDS011;10936;49.836;7.078;2022-11-14T07:43:00;2.10;;;1.40;;
21550;SDS011;10936;49.836;7.078;2022-11-14T07:45:26;8.17;;;2.40;;
21550;SDS011;10936;49.836;7.078;2022-11-14T07:47:54;3.20;;;1.80;;
21550;SDS011;10936;49.836;7.078;2022-11-14T07:50:21;2.17;;;1.50;;
21550;SDS011;10936;49.836;7.078;2022-11-14T07:52:51;2.70;;;1.80;;
21550;SDS011;10936;49.836;7.078;2022-11-14T07:55:17;1.73;;;1.63;;
21550;SDS011;10936;49.836;7.078;2022-11-14T07:57:43;3.00;;;1.80;;
21550;SDS011;10936;49.836;7.078;2022-11-14T08:00:09;3.13;;;1.93;;
21550;SDS011;10936;49.836;7.078;2022-11-14T08:02:35;2.37;;;1.67;;
21550;SDS011;10936;49.836;7.078;2022-11-14T08:05:01;3.70;;;1.70;;
21550;SDS011;10936;49.836;7.078;2022-11-14T08:07:26;3.63;;;1.83;;
21550;SDS011;10936;49.836;7.078;2022-11-14T08:09:52;3.93;;;1.70;;
21550;SDS011;10936;49.836;7.078;2022-11-14T08:12:17;3.43;;;1.80;;
21550;SDS011;10936;49.836;7.078;2022-11-14T08:14:43;2.33;;;1.67;;
21550;SDS011;10936;49.836;7.078;2022-11-14T08:17:08;3.63;;;1.60;;
21550;SDS011;10936;49.836;7.078;2022-11-14T08:19:34;2.13;;;1.50;;
21550;SDS011;10936;49.836;7.078;2022-11-14T08:21:59;2.23;;;1.73;;
21550;SDS011;10936;49.836;7.078;2022-11-14T08:24:25;3.03;;;2.00;;
21550;SDS011;10936;49.836;7.078;2022-11-14T08:26:50;3.00;;;1.83;;
21550;SDS011;10936;49.836;7.078;2022-11-14T08:29:16;2.73;;;1.60;;
21550;SDS011;10936;49.836;7.078;2022-11-14T08:31:42;11.83;;;2.87;;
21550;SDS011;10936;49.836;7.078;2022-11-14T08:34:09;2.00;;;1.70;;
21550;SDS011;10936;49.836;7.078;2022-11-14T08:36:34;2.30;;;1.70;;
21550;SDS011;10936;49.836;7.078;2022-11-14T08:39:00;2.30;;;1.60;;
21550;SDS011;10936;49.836;7.078;2022-11-14T08:41:26;3.77;;;2.03;;
21550;SDS011;10936;49.836;7.078;2022-11-14T08:43:52;2.77;;;1.60;;
21550;SDS011;10936;49.836;7.078;2022-11-14T08:46:17;2.67;;;1.70;;
21550;SDS011;10936;49.836;7.078;2022-11-14T08:48:43;2.70;;;1.87;;
21550;SDS011;10936;49.836;7.078;2022-11-14T08:51:08;2.00;;;1.40;;
21550;SDS011;10936;49.836;7.078;2022-11-14T08:53:34;2.20;;;1.63;;
21550;SDS011;10936;49.836;7.078;2022-11-14T08:55:59;2.10;;;1.67;;
21550;SDS011;10936;49.836;7.078;2022-11-14T08:58:31;1.50;;;1.40;;
21550;SDS011;10936;49.836;7.078;2022-11-14T09:01:01;2.53;;;1.67;;
21550;SDS011;10936;49.836;7.078;2022-11-14T09:03:28;3.83;;;1.67;;
21550;SDS011;10936;49.836;7.078;2022-11-14T09:05:53;2.20;;;1.67;;
21550;SDS011;10936;49.836;7.078;2022-11-14T09:08:19;2.57;;;1.70;;
21550;SDS011;10936;49.836;7.078;2022-11-14T09:10:45;2.03;;;1.63;;
21550;SDS011;10936;49.836;7.078;2022-11-14T09:13:11;2.03;;;1.60;;
21550;SDS011;10936;49.836;7.078;2022-11-14T09:15:36;3.23;;;1.60;;
21550;SDS011;10936;49.836;7.078;2022-11-14T09:18:02;1.60;;;1.43;;
21550;SDS011;10936;49.836;7.078;2022-11-14T09:20:27;3.30;;;2.13;;
21550;SDS011;10936;49.836;7.078;2022-11-14T09:22:56;1.87;;;1.67;;
21550;SDS011;10936;49.836;7.078;2022-11-14T09:25:22;1.70;;;1.60;;
21550;SDS011;10936;49.836;7.078;2022-11-14T09:27:50;1.70;;;1.60;;
21550;SDS011;10936;49.836;7.078;2022-11-14T09:30:16;2.97;;;1.93;;
21550;SDS011;10936;49.836;7.078;2022-11-14T09:32:42;2.27;;;1.70;;
21550;SDS011;10936;49.836;7.078;2022-11-14T09:35:08;2.43;;;1.77;;
21550;SDS011;10936;49.836;7.078;2022-11-14T09:37:34;3.20;;;1.60;;
21550;SDS011;10936;49.836;7.078;2022-11-14T09:39:59;2.23;;;1.60;;
21550;SDS011;10936;49.836;7.078;2022-11-14T09:44:54;3.07;;;1.60;;
21550;SDS011;10936;49.836;7.078;2022-11-14T09:47:27;4.40;;;1.80;;
21550;SDS011;10936;49.836;7.078;2022-11-14T09:50:06;2.33;;;1.77;;
21550;SDS011;10936;49.836;7.078;2022-11-14T09:52:42;2.50;;;1.73;;
21550;SDS011;10936;49.836;7.078;2022-11-14T09:55:18;2.23;;;1.60;;
21550;SDS011;10936;49.836;7.078;2022-11-14T09:57:46;1.50;;;1.40;;
21550;SDS011;10936;49.836;7.078;2022-11-14T10:00:16;1.50;;;1.40;;
21550;SDS011;10936;49.836;7.078;2022-11-14T10:20:14;2.07;;;1.80;;
21550;SDS011;10936;49.836;7.078;2022-11-14T10:34:05;3.00;;;2.00;;
21550;SDS011;10936;49.836;7.078;2022-11-14T10:36:46;2.33;;;1.77;;
21550;SDS011;10936;49.836;7.078;2022-11-14T10:39:21;2.10;;;1.70;;
21550;SDS011;10936;49.836;7.078;2022-11-14T10:42:08;2.33;;;1.70;;
21550;SDS011;10936;49.836;7.078;2022-11-14T10:44:56;1.90;;;1.60;;
21550;SDS011;10936;49.836;7.078;2022-11-14T10:47:33;2.80;;;2.10;;
21550;SDS011;10936;49.836;7.078;2022-11-14T10:50:10;1.97;;;1.57;;
21550;SDS011;10936;49.836;7.078;2022-11-14T10:52:51;2.00;;;1.70;;
21550;SDS011;10936;49.836;7.078;2022-11-14T10:55:23;1.63;;;1.53;;
21550;SDS011;10936;49.836;7.078;2022-11-14T10:57:49;2.70;;;1.63;;
21550;SDS011;10936;49.836;7.078;2022-11-14T11:00:16;2.40;;;1.80;;
21550;SDS011;10936;49.836;7.078;2022-11-14T11:02:51;6.77;;;1.70;;
21550;SDS011;10936;49.836;7.078;2022-11-14T11:05:19;1.70;;;1.50;;
21550;SDS011;10936;49.836;7.078;2022-11-14T11:07:47;1.90;;;1.50;;
21550;SDS011;10936;49.836;7.078;2022-11-14T11:10:32;2.37;;;1.80;;
21550;SDS011;10936;49.836;7.078;2022-11-14T11:13:39;1.80;;;1.57;;
21550;SDS011;10936;49.836;7.078;2022-11-14T11:16:26;2.57;;;1.80;;
21550;SDS011;10936;49.836;7.078;2022-11-14T11:18:53;2.87;;;1.93;;
21550;SDS011;10936;49.836;7.078;2022-11-14T11:21:45;2.20;;;1.50;;
21550;SDS011;10936;49.836;7.078;2022-11-14T11:24:29;4.27;;;1.70;;
21550;SDS011;10936;49.836;7.078;2022-11-14T11:29:44;2.37;;;1.70;;
21550;SDS011;10936;49.836;7.078;2022-11-14T11:32:10;2.93;;;1.90;;
21550;SDS011;10936;49.836;7.078;2022-11-14T11:34:47;2.30;;;1.80;;
21550;SDS011;10936;49.836;7.078;2022-11-14T11:37:20;2.60;;;1.90;;
21550;SDS011;10936;49.836;7.078;2022-11-14T11:39:55;2.10;;;1.70;;
21550;SDS011;10936;49.836;7.078;2022-11-14T11:42:27;2.47;;;1.73;;
21550;SDS011;10936;49.836;7.078;2022-11-14T11:45:11;2.63;;;1.70;;
21550;SDS011;10936;49.836;7.078;2022-11-14T11:47:41;2.37;;;1.60;;
21550;SDS011;10936;49.836;7.078;2022-11-14T11:50:32;3.50;;;2.07;;
21550;SDS011;10936;49.836;7.078;2022-11-14T11:55:43;3.40;;;1.90;;
21550;SDS011;10936;49.836;7.078;2022-11-14T11:58:22;1.87;;;1.60;;
21550;SDS011;10936;49.836;7.078;2022-11-14T12:00:52;2.10;;;1.50;;
21550;SDS011;10936;49.836;7.078;2022-11-14T12:03:24;4.93;;;1.70;;
21550;SDS011;10936;49.836;7.078;2022-11-14T12:11:16;2.67;;;1.90;;
21550;SDS011;10936;49.836;7.078;2022-11-14T12:14:04;2.50;;;2.03;;
21550;SDS011;10936;49.836;7.078;2022-11-14T12:20:07;2.87;;;1.80;;
21550;SDS011;10936;49.836;7.078;2022-11-14T12:28:33;2.87;;;1.83;;
21550;SDS011;10936;49.836;7.078;2022-11-14T12:31:12;4.53;;;2.00;;
21550;SDS011;10936;49.836;7.078;2022-11-14T12:33:49;4.60;;;1.83;;
21550;SDS011;10936;49.836;7.078;2022-11-14T12:36:24;2.03;;;1.83;;
21550;SDS011;10936;49.836;7.078;2022-11-14T12:38:55;5.13;;;1.83;;
21550;SDS011;10936;49.836;7.078;2022-11-14T12:41:32;4.07;;;1.80;;
21550;SDS011;10936;49.836;7.078;2022-11-14T12:44:34;2.17;;;1.60;;
21550;SDS011;10936;49.836;7.078;2022-11-14T12:55:18;2.17;;;1.60;;
21550;SDS011;10936;49.836;7.078;2022-11-14T12:58:11;3.50;;;2.13;;
21550;SDS011;10936;49.836;7.078;2022-11-14T13:05:53;2.53;;;1.73;;
21550;SDS011;10936;49.836;7.078;2022-11-14T13:10:56;2.13;;;1.70;;
21550;SDS011;10936;49.836;7.078;2022-11-14T13:13:22;2.43;;;1.80;;
21550;SDS011;10936;49.836;7.078;2022-11-14T13:16:20;4.83;;;2.60;;
21550;SDS011;10936;49.836;7.078;2022-11-14T13:25:24;1.93;;;1.60;;
21550;SDS011;10936;49.836;7.078;2022-11-14T13:27:29;2.50;;;1.53;;
21550;SDS011;10936;49.836;7.078;2022-11-14T13:29:56;2.83;;;1.73;;
21550;SDS011;10936;49.836;7.078;2022-11-14T13:35:15;2.17;;;1.97;;
21550;SDS011;10936;49.836;7.078;2022-11-14T13:37:53;4.27;;;1.70;;
21550;SDS011;10936;49.836;7.078;2022-11-14T13:51:52;3.70;;;1.83;;
21550;SDS011;10936;49.836;7.078;2022-11-14T13:54:19;2.60;;;1.87;;
21550;SDS011;10936;49.836;7.078;2022-11-14T14:00:01;3.03;;;1.90;;
21550;SDS011;10936;49.836;7.078;2022-11-14T14:07:56;2.33;;;1.70;;
21550;SDS011;10936;49.836;7.078;2022-11-14T14:21:22;3.10;;;1.80;;
21550;SDS011;10936;49.836;7.078;2022-11-14T14:32:05;2.87;;;2.23;;
21550;SDS011;10936;49.836;7.078;2022-11-14T14:34:37;37.97;;;5.23;;
21550;SDS011;10936;49.836;7.078;2022-11-14T14:37:12;7.43;;;2.70;;
21550;SDS011;10936;49.836;7.078;2022-11-14T14:39:57;12.40;;;4.73;;
21550;SDS011;10936;49.836;7.078;2022-11-14T14:42:25;13.77;;;4.30;;
21550;SDS011;10936;49.836;7.078;2022-11-14T14:44:54;8.03;;;2.73;;
21550;SDS011;10936;49.836;7.078;2022-11-14T14:47:40;10.23;;;3.00;;
21550;SDS011;10936;49.836;7.078;2022-11-14T14:52:53;8.63;;;2.20;;
21550;SDS011;10936;49.836;7.078;2022-11-14T14:55:21;13.37;;;2.70;;
21550;SDS011;10936;49.836;7.078;2022-11-14T14:57:49;5.07;;;2.33;;
21550;SDS011;10936;49.836;7.078;2022-11-14T15:02:50;10.20;;;2.23;;
21550;SDS011;10936;49.836;7.078;2022-11-14T15:05:24;7.10;;;2.30;;
21550;SDS011;10936;49.836;7.078;2022-11-14T15:07:52;3.37;;;2.33;;
21550;SDS011;10936;49.836;7.078;2022-11-14T15:10:25;4.50;;;2.07;;
21550;SDS011;10936;49.836;7.078;2022-11-14T15:12:54;4.27;;;2.50;;
21550;SDS011;10936;49.836;7.078;2022-11-14T15:15:21;4.77;;;2.30;;
21550;SDS011;10936;49.836;7.078;2022-11-14T15:17:49;6.60;;;2.10;;
21550;SDS011;10936;49.836;7.078;2022-11-14T15:20:24;6.20;;;2.07;;
21550;SDS011;10936;49.836;7.078;2022-11-14T15:23:15;4.03;;;2.40;;
21550;SDS011;10936;49.836;7.078;2022-11-14T15:25:43;3.60;;;2.40;;
21550;SDS011;10936;49.836;7.078;2022-11-14T15:28:16;4.27;;;2.40;;
21550;SDS011;10936;49.836;7.078;2022-11-14T15:30:58;3.67;;;2.10;;
21550;SDS011;10936;49.836;7.078;2022-11-14T15:33:27;7.80;;;2.17;;
21550;SDS011;10936;49.836;7.078;2022-11-14T15:36:13;5.43;;;2.30;;
21550;SDS011;10936;49.836;7.078;2022-11-14T15:39:44;6.33;;;2.63;;
21550;SDS011;10936;49.836;7.078;2022-11-14T15:42:10;4.43;;;2.30;;
21550;SDS011;10936;49.836;7.078;2022-11-14T15:44:36;4.03;;;2.10;;
21550;SDS011;10936;49.836;7.078;2022-11-14T15:47:02;5.50;;;2.30;;
21550;SDS011;10936;49.836;7.078;2022-11-14T15:49:29;5.30;;;2.10;;
21550;SDS011;10936;49.836;7.078;2022-11-14T15:51:56;4.23;;;2.07;;
21550;SDS011;10936;49.836;7.078;2022-11-14T15:54:33;5.90;;;2.13;;
21550;SDS011;10936;49.836;7.078;2022-11-14T15:57:11;4.27;;;2.23;;
21550;SDS011;10936;49.836;7.078;2022-11-14T15:59:38;4.20;;;2.00;;
21550;SDS011;10936;49.836;7.078;2022-11-14T16:04:47;3.93;;;2.40;;
21550;SDS011;10936;49.836;7.078;2022-11-14T16:07:15;5.00;;;3.07;;
21550;SDS011;10936;49.836;7.078;2022-11-14T16:09:41;3.63;;;2.47;;
21550;SDS011;10936;49.836;7.078;2022-11-14T16:12:06;4.17;;;2.30;;
21550;SDS011;10936;49.836;7.078;2022-11-14T16:14:32;3.93;;;2.27;;
21550;SDS011;10936;49.836;7.078;2022-11-14T16:16:58;5.43;;;2.43;;
21550;SDS011;10936;49.836;7.078;2022-11-14T16:19:24;5.37;;;2.03;;
21550;SDS011;10936;49.836;7.078;2022-11-14T16:21:49;3.17;;;2.30;;
21550;SDS011;10936;49.836;7.078;2022-11-14T16:24:16;9.83;;;2.37;;
21550;SDS011;10936;49.836;7.078;2022-11-14T16:26:46;5.97;;;2.10;;
21550;SDS011;10936;49.836;7.078;2022-11-14T16:29:12;4.33;;;1.93;;
21550;SDS011;10936;49.836;7.078;2022-11-14T16:31:38;4.83;;;2.00;;
21550;SDS011;10936;49.836;7.078;2022-11-14T16:34:04;7.80;;;2.20;;
21550;SDS011;10936;49.836;7.078;2022-11-14T16:36:31;4.07;;;2.20;;
21550;SDS011;10936;49.836;7.078;2022-11-14T16:38:57;4.50;;;2.20;;
21550;SDS011;10936;49.836;7.078;2022-11-14T16:41:25;4.47;;;2.20;;
21550;SDS011;10936;49.836;7.078;2022-11-14T16:43:54;4.13;;;2.17;;
21550;SDS011;10936;49.836;7.078;2022-11-14T16:46:21;4.07;;;2.10;;
21550;SDS011;10936;49.836;7.078;2022-11-14T16:48:47;5.70;;;2.03;;
21550;SDS011;10936;49.836;7.078;2022-11-14T16:51:13;2.57;;;1.77;;
21550;SDS011;10936;49.836;7.078;2022-11-14T16:53:38;8.00;;;2.30;;
21550;SDS011;10936;49.836;7.078;2022-11-14T16:56:04;3.83;;;2.13;;
21550;SDS011;10936;49.836;7.078;2022-11-14T16:58:30;6.07;;;2.63;;
21550;SDS011;10936;49.836;7.078;2022-11-14T17:00:56;7.03;;;2.13;;
21550;SDS011;10936;49.836;7.078;2022-11-14T17:03:22;7.23;;;2.20;;
21550;SDS011;10936;49.836;7.078;2022-11-14T17:05:49;6.93;;;2.40;;
21550;SDS011;10936;49.836;7.078;2022-11-14T17:08:15;2.50;;;1.90;;
21550;SDS011;10936;49.836;7.078;2022-11-14T17:10:41;8.50;;;2.57;;
21550;SDS011;10936;49.836;7.078;2022-11-14T17:13:08;5.27;;;2.67;;
21550;SDS011;10936;49.836;7.078;2022-11-14T17:15:34;4.33;;;2.70;;
21550;SDS011;10936;49.836;7.078;2022-11-14T17:18:00;3.93;;;2.30;;
21550;SDS011;10936;49.836;7.078;2022-11-14T17:20:25;3.17;;;2.20;;
21550;SDS011;10936;49.836;7.078;2022-11-14T17:22:51;5.17;;;2.60;;
21550;SDS011;10936;49.836;7.078;2022-11-14T17:25:17;6.40;;;3.00;;
21550;SDS011;10936;49.836;7.078;2022-11-14T17:27:42;3.57;;;2.63;;
21550;SDS011;10936;49.836;7.078;2022-11-14T17:30:11;3.13;;;2.87;;
21550;SDS011;10936;49.836;7.078;2022-11-14T17:32:39;4.17;;;3.00;;
21550;SDS011;10936;49.836;7.078;2022-11-14T17:35:04;4.93;;;3.20;;
21550;SDS011;10936;49.836;7.078;2022-11-14T17:37:30;5.90;;;3.50;;
21550;SDS011;10936;49.836;7.078;2022-11-14T17:39:56;4.77;;;3.97;;
21550;SDS011;10936;49.836;7.078;2022-11-14T17:42:21;4.33;;;3.50;;
21550;SDS011;10936;49.836;7.078;2022-11-14T17:44:47;4.40;;;3.70;;
21550;SDS011;10936;49.836;7.078;2022-11-14T17:47:12;4.53;;;4.13;;
21550;SDS011;10936;49.836;7.078;2022-11-14T17:49:38;6.53;;;4.27;;
21550;SDS011;10936;49.836;7.078;2022-11-14T17:52:03;5.50;;;4.17;;
21550;SDS011;10936;49.836;7.078;2022-11-14T17:54:29;5.23;;;4.30;;
21550;SDS011;10936;49.836;7.078;2022-11-14T17:56:54;5.03;;;4.57;;
21550;SDS011;10936;49.836;7.078;2022-11-14T17:59:21;4.77;;;4.37;;
21550;SDS011;10936;49.836;7.078;2022-11-14T18:01:46;4.90;;;4.30;;
21550;SDS011;10936;49.836;7.078;2022-11-14T18:04:12;5.50;;;4.93;;
21550;SDS011;10936;49.836;7.078;2022-11-14T18:06:38;7.87;;;4.87;;
21550;SDS011;10936;49.836;7.078;2022-11-14T18:09:03;6.37;;;5.10;;
21550;SDS011;10936;49.836;7.078;2022-11-14T18:11:30;5.73;;;5.07;;
21550;SDS011;10936;49.836;7.078;2022-11-14T18:13:56;5.83;;;5.17;;
21550;SDS011;10936;49.836;7.078;2022-11-14T18:16:22;6.27;;;5.33;;
21550;SDS011;10936;49.836;7.078;2022-11-14T18:18:49;7.57;;;5.20;;
21550;SDS011;10936;49.836;7.078;2022-11-14T18:21:20;5.83;;;5.07;;
21550;SDS011;10936;49.836;7.078;2022-11-14T18:23:54;5.07;;;4.67;;
21550;SDS011;10936;49.836;7.078;2022-11-14T18:26:22;6.23;;;5.10;;
21550;SDS011;10936;49.836;7.078;2022-11-14T18:31:21;8.07;;;5.00;;
21550;SDS011;10936;49.836;7.078;2022-11-14T18:33:47;5.80;;;5.20;;
21550;SDS011;10936;49.836;7.078;2022-11-14T18:36:12;5.53;;;5.03;;
21550;SDS011;10936;49.836;7.078;2022-11-14T18:38:39;7.17;;;5.20;;
21550;SDS011;10936;49.836;7.078;2022-11-14T18:41:09;5.43;;;4.93;;
21550;SDS011;10936;49.836;7.078;2022-11-14T18:43:37;5.30;;;4.80;;
21550;SDS011;10936;49.836;7.078;2022-11-14T18:46:04;6.80;;;5.23;;
21550;SDS011;10936;49.836;7.078;2022-11-14T18:48:33;5.00;;;4.60;;
21550;SDS011;10936;49.836;7.078;2022-11-14T18:51:00;5.10;;;4.70;;
21550;SDS011;10936;49.836;7.078;2022-11-14T18:53:31;6.03;;;4.70;;
21550;SDS011;10936;49.836;7.078;2022-11-14T18:55:57;5.40;;;4.67;;
21550;SDS011;10936;49.836;7.078;2022-11-14T18:58:23;6.60;;;6.00;;
21550;SDS011;10936;49.836;7.078;2022-11-14T19:00:49;5.07;;;4.57;;
21550;SDS011;10936;49.836;7.078;2022-11-14T19:03:15;5.37;;;4.87;;
21550;SDS011;10936;49.836;7.078;2022-11-14T19:05:40;7.50;;;4.80;;
21550;SDS011;10936;49.836;7.078;2022-11-14T19:08:06;5.57;;;4.97;;
21550;SDS011;10936;49.836;7.078;2022-11-14T19:10:32;5.30;;;4.77;;
21550;SDS011;10936;49.836;7.078;2022-11-14T19:12:58;5.40;;;4.90;;
21550;SDS011;10936;49.836;7.078;2022-11-14T19:15:23;7.03;;;5.00;;
21550;SDS011;10936;49.836;7.078;2022-11-14T19:17:49;5.43;;;4.70;;
21550;SDS011;10936;49.836;7.078;2022-11-14T19:20:15;5.10;;;4.60;;
21550;SDS011;10936;49.836;7.078;2022-11-14T19:22:41;5.53;;;5.03;;
21550;SDS011;10936;49.836;7.078;2022-11-14T19:25:07;5.30;;;4.80;;
21550;SDS011;10936;49.836;7.078;2022-11-14T19:27:33;5.47;;;4.60;;
21550;SDS011;10936;49.836;7.078;2022-11-14T19:29:58;5.17;;;4.67;;
21550;SDS011;10936;49.836;7.078;2022-11-14T19:32:24;5.00;;;4.50;;
21550;SDS011;10936;49.836;7.078;2022-11-14T19:34:50;5.20;;;4.70;;
21550;SDS011;10936;49.836;7.078;2022-11-14T19:37:15;5.53;;;4.93;;
21550;SDS011;10936;49.836;7.078;2022-11-14T19:39:41;6.90;;;4.60;;
21550;SDS011;10936;49.836;7.078;2022-11-14T19:42:06;5.60;;;4.40;;
21550;SDS011;10936;49.836;7.078;2022-11-14T19:44:32;4.60;;;4.20;;
21550;SDS011;10936;49.836;7.078;2022-11-14T19:46:58;7.63;;;5.10;;
21550;SDS011;10936;49.836;7.078;2022-11-14T19:49:23;4.60;;;4.20;;
21550;SDS011;10936;49.836;7.078;2022-11-14T19:51:49;5.00;;;4.50;;
21550;SDS011;10936;49.836;7.078;2022-11-14T19:54:14;5.30;;;4.80;;
21550;SDS011;10936;49.836;7.078;2022-11-14T19:56:40;5.07;;;4.60;;
21550;SDS011;10936;49.836;7.078;2022-11-14T19:59:05;5.80;;;4.73;;
21550;SDS011;10936;49.836;7.078;2022-11-14T20:01:31;5.57;;;4.67;;
21550;SDS011;10936;49.836;7.078;2022-11-14T20:04:01;5.77;;;5.10;;
21550;SDS011;10936;49.836;7.078;2022-11-14T20:08:53;4.67;;;4.27;;
21550;SDS011;10936;49.836;7.078;2022-11-14T20:11:20;4.83;;;4.37;;
21550;SDS011;10936;49.836;7.078;2022-11-14T20:13:47;4.37;;;3.97;;
21550;SDS011;10936;49.836;7.078;2022-11-14T20:16:14;7.57;;;4.60;;
21550;SDS011;10936;49.836;7.078;2022-11-14T20:18:41;5.50;;;4.47;;
21550;SDS011;10936;49.836;7.078;2022-11-14T20:21:16;5.63;;;4.47;;
21550;SDS011;10936;49.836;7.078;2022-11-14T20:23:44;4.97;;;4.57;;
21550;SDS011;10936;49.836;7.078;2022-11-14T20:26:10;4.57;;;4.17;;
21550;SDS011;10936;49.836;7.078;2022-11-14T20:28:37;5.23;;;4.60;;
21550;SDS011;10936;49.836;7.078;2022-11-14T20:31:04;5.00;;;4.50;;
21550;SDS011;10936;49.836;7.078;2022-11-14T20:33:35;5.03;;;4.33;;
21550;SDS011;10936;49.836;7.078;2022-11-14T20:36:06;4.53;;;4.13;;
21550;SDS011;10936;49.836;7.078;2022-11-14T20:38:34;6.37;;;4.73;;
21550;SDS011;10936;49.836;7.078;2022-11-14T20:41:00;5.00;;;4.50;;
21550;SDS011;10936;49.836;7.078;2022-11-14T20:43:26;6.83;;;4.43;;
21550;SDS011;10936;49.836;7.078;2022-11-14T20:45:53;5.23;;;4.73;;
21550;SDS011;10936;49.836;7.078;2022-11-14T20:48:23;4.43;;;4.03;;
21550;SDS011;10936;49.836;7.078;2022-11-14T20:50:49;4.80;;;4.17;;
21550;SDS011;10936;49.836;7.078;2022-11-14T20:53:14;5.67;;;4.40;;
21550;SDS011;10936;49.836;7.078;2022-11-14T20:55:40;4.87;;;4.37;;
21550;SDS011;10936;49.836;7.078;2022-11-14T20:58:05;5.30;;;4.80;;
21550;SDS011;10936;49.836;7.078;2022-11-14T21:00:31;5.13;;;4.50;;
21550;SDS011;10936;49.836;7.078;2022-11-14T21:02:57;5.00;;;4.50;;
21550;SDS011;10936;49.836;7.078;2022-11-14T21:05:22;4.60;;;4.07;;
21550;SDS011;10936;49.836;7.078;2022-11-14T21:07:48;7.33;;;4.67;;
21550;SDS011;10936;49.836;7.078;2022-11-14T21:10:13;5.33;;;4.50;;
21550;SDS011;10936;49.836;7.078;2022-11-14T21:12:58;5.10;;;4.37;;
21550;SDS011;10936;49.836;7.078;2022-11-14T21:15:42;5.00;;;4.50;;
21550;SDS011;10936;49.836;7.078;2022-11-14T21:18:07;5.60;;;4.30;;
21550;SDS011;10936;49.836;7.078;2022-11-14T21:20:33;5.30;;;4.50;;
21550;SDS011;10936;49.836;7.078;2022-11-14T21:22:58;4.53;;;4.13;;
21550;SDS011;10936;49.836;7.078;2022-11-14T21:25:24;5.87;;;4.17;;
21550;SDS011;10936;49.836;7.078;2022-11-14T21:27:50;4.87;;;4.37;;
21550;SDS011;10936;49.836;7.078;2022-11-14T21:30:15;5.13;;;4.43;;
21550;SDS011;10936;49.836;7.078;2022-11-14T21:32:41;4.57;;;4.10;;
21550;SDS011;10936;49.836;7.078;2022-11-14T21:35:06;4.90;;;4.40;;
21550;SDS011;10936;49.836;7.078;2022-11-14T21:37:32;4.67;;;4.13;;
21550;SDS011;10936;49.836;7.078;2022-11-14T21:39:58;4.80;;;4.30;;
21550;SDS011;10936;49.836;7.078;2022-11-14T21:42:23;4.83;;;4.43;;
21550;SDS011;10936;49.836;7.078;2022-11-14T21:44:49;5.20;;;4.60;;
21550;SDS011;10936;49.836;7.078;2022-11-14T21:47:14;5.03;;;4.53;;
21550;SDS011;10936;49.836;7.078;2022-11-14T21:49:40;4.87;;;4.37;;
21550;SDS011;10936;49.836;7.078;2022-11-14T21:52:05;4.97;;;4.40;;
21550;SDS011;10936;49.836;7.078;2022-11-14T21:54:31;4.50;;;4.10;;
21550;SDS011;10936;49.836;7.078;2022-11-14T21:56:56;4.93;;;4.17;;
21550;SDS011;10936;49.836;7.078;2022-11-14T21:59:22;4.60;;;4.20;;
21550;SDS011;10936;49.836;7.078;2022-11-14T22:01:51;4.50;;;4.10;;
21550;SDS011;10936;49.836;7.078;2022-11-14T22:04:35;4.73;;;3.90;;
21550;SDS011;10936;49.836;7.078;2022-11-14T22:07:02;5.60;;;4.43;;
21550;SDS011;10936;49.836;7.078;2022-11-14T22:09:29;5.40;;;4.27;;
21550;SDS011;10936;49.836;7.078;2022-11-14T22:11:55;5.50;;;4.10;;
21550;SDS011;10936;49.836;7.078;2022-11-14T22:14:20;4.40;;;4.00;;
21550;SDS011;10936;49.836;7.078;2022-11-14T22:16:46;4.23;;;3.83;;
21550;SDS011;10936;49.836;7.078;2022-11-14T22:19:12;4.10;;;3.70;;
21550;SDS011;10936;49.836;7.078;2022-11-14T22:21:37;4.80;;;4.30;;
21550;SDS011;10936;49.836;7.078;2022-11-14T22:24:03;5.37;;;4.10;;
21550;SDS011;10936;49.836;7.078;2022-11-14T22:26:29;4.30;;;3.80;;
21550;SDS011;10936;49.836;7.078;2022-11-14T22:28:55;4.97;;;3.90;;
